SAS1477 EKCH-EGKK
Flight info
| Callsign | SAS1477 |
|---|---|
| Flight time | 1h 43m |
| Altitude | 40000 |
| Route | ODDON1C ODDON DCT TUSKA DCT LONAM DCT BINBO DCT AKOKO N866 BUKUT P7 BARMI BARMI1G |
| Aircraft | A343/H-SDE2E3FGHIJ4J5M1RWXY/LB1D1 |
Departure
| Time | 2026-04-25 13:42 |
|---|---|
| Airport | Copenhagen Kastrup Airport (EKCH) |
Arrival
| Time | 2026-04-25 15:25 |
|---|---|
| Airport | London Gatwick Airport (EGKK) |
| Time | Latitude | Longitude | Altitude | Speed | Heading |
|---|---|---|---|---|---|
| 2026-04-25 13:13 | 55.62605 | 12.64867 | 21 ft | 0 kts | 91° |
| 2026-04-25 13:30 | 55.62605 | 12.64865 | 21 ft | 2 kts | 91° |
| 2026-04-25 13:30 | 55.62605 | 12.64832 | 22 ft | 3 kts | 103° |
| 2026-04-25 13:30 | 55.62614 | 12.64800 | 24 ft | 3 kts | 148° |
| 2026-04-25 13:31 | 55.62630 | 12.64789 | 26 ft | 0 kts | 182° |
| 2026-04-25 13:35 | 55.62619 | 12.64787 | 26 ft | 3 kts | 185° |
| 2026-04-25 13:35 | 55.62591 | 12.64779 | 22 ft | 6 kts | 188° |
| 2026-04-25 13:36 | 55.62522 | 12.64774 | 21 ft | 13 kts | 180° |
| 2026-04-25 13:36 | 55.62432 | 12.64778 | 21 ft | 6 kts | 178° |
| 2026-04-25 13:36 | 55.62367 | 12.64783 | 21 ft | 11 kts | 177° |
| 2026-04-25 13:36 | 55.62334 | 12.64749 | 24 ft | 4 kts | 243° |
| 2026-04-25 13:37 | 55.62319 | 12.64693 | 21 ft | 6 kts | 245° |
| 2026-04-25 13:37 | 55.62302 | 12.64624 | 21 ft | 7 kts | 246° |
| 2026-04-25 13:37 | 55.62282 | 12.64542 | 22 ft | 8 kts | 245° |
| 2026-04-25 13:37 | 55.62258 | 12.64450 | 20 ft | 10 kts | 244° |
| 2026-04-25 13:38 | 55.62199 | 12.64348 | 19 ft | 15 kts | 211° |
| 2026-04-25 13:38 | 55.62101 | 12.64264 | 21 ft | 17 kts | 206° |
| 2026-04-25 13:38 | 55.61983 | 12.64161 | 23 ft | 21 kts | 206° |
| 2026-04-25 13:38 | 55.61841 | 12.64072 | 21 ft | 23 kts | 182° |
| 2026-04-25 13:39 | 55.61757 | 12.64080 | 21 ft | 0 kts | 176° |
| 2026-04-25 13:40 | 55.61756 | 12.64080 | 21 ft | 1 kts | 176° |
| 2026-04-25 13:40 | 55.61734 | 12.64082 | 25 ft | 5 kts | 176° |
| 2026-04-25 13:40 | 55.61688 | 12.64087 | 26 ft | 8 kts | 176° |
| 2026-04-25 13:40 | 55.61631 | 12.64069 | 29 ft | 9 kts | 204° |
| 2026-04-25 13:41 | 55.61564 | 12.63980 | 26 ft | 15 kts | 220° |
| 2026-04-25 13:41 | 55.61479 | 12.63849 | 25 ft | 20 kts | 221° |
| 2026-04-25 13:41 | 55.61219 | 12.63443 | 29 ft | 82 kts | 221° |
| 2026-04-25 13:41 | 55.60641 | 12.62552 | 27 ft | 136 kts | 221° |
| 2026-04-25 13:42 | 55.59787 | 12.61342 | 154 ft | 170 kts | 233° |
| 2026-04-25 13:42 | 55.58841 | 12.60069 | 754 ft | 172 kts | 227° |
| 2026-04-25 13:42 | 55.57850 | 12.58713 | 1381 ft | 190 kts | 229° |
| 2026-04-25 13:42 | 55.56802 | 12.56959 | 1586 ft | 225 kts | 241° |
| 2026-04-25 13:43 | 55.56376 | 12.54400 | 2608 ft | 210 kts | 275° |
| 2026-04-25 13:43 | 55.56436 | 12.51795 | 3503 ft | 226 kts | 274° |
| 2026-04-25 13:43 | 55.56564 | 12.48920 | 4287 ft | 235 kts | 283° |
| 2026-04-25 13:43 | 55.56869 | 12.46119 | 5692 ft | 224 kts | 285° |
| 2026-04-25 13:44 | 55.57170 | 12.43475 | 6875 ft | 223 kts | 284° |
| 2026-04-25 13:44 | 55.57476 | 12.40722 | 7376 ft | 230 kts | 282° |
| 2026-04-25 13:44 | 55.57668 | 12.37865 | 7541 ft | 232 kts | 279° |
| 2026-04-25 13:44 | 55.57798 | 12.35053 | 7361 ft | 233 kts | 278° |
| 2026-04-25 13:45 | 55.57917 | 12.32194 | 7117 ft | 232 kts | 278° |
| 2026-04-25 13:45 | 55.58029 | 12.29335 | 6897 ft | 232 kts | 278° |
| 2026-04-25 13:45 | 55.58120 | 12.26499 | 6842 ft | 232 kts | 278° |
| 2026-04-25 13:45 | 55.58207 | 12.23644 | 6842 ft | 233 kts | 278° |
| 2026-04-25 13:46 | 55.58295 | 12.20779 | 6843 ft | 233 kts | 278° |
| 2026-04-25 13:46 | 55.58382 | 12.17934 | 6952 ft | 230 kts | 278° |
| 2026-04-25 13:46 | 55.58469 | 12.15132 | 7417 ft | 232 kts | 278° |
| 2026-04-25 13:46 | 55.58558 | 12.12281 | 8341 ft | 233 kts | 278° |
| 2026-04-25 13:47 | 55.58645 | 12.09437 | 9477 ft | 230 kts | 277° |
| 2026-04-25 13:47 | 55.58732 | 12.06593 | 10395 ft | 235 kts | 277° |
| 2026-04-25 13:47 | 55.58829 | 12.03595 | 10823 ft | 254 kts | 277° |
| 2026-04-25 13:47 | 55.58931 | 12.00353 | 11203 ft | 273 kts | 277° |
| 2026-04-25 13:48 | 55.59036 | 11.96908 | 11680 ft | 287 kts | 277° |
| 2026-04-25 13:48 | 55.59105 | 11.94556 | 12155 ft | 291 kts | 277° |
| 2026-04-25 13:48 | 55.59242 | 11.89780 | 13256 ft | 295 kts | 277° |
| 2026-04-25 13:48 | 55.59346 | 11.86128 | 14045 ft | 299 kts | 277° |
| 2026-04-25 13:49 | 55.59415 | 11.83689 | 14523 ft | 301 kts | 277° |
| 2026-04-25 13:49 | 55.59521 | 11.79962 | 15254 ft | 305 kts | 277° |
| 2026-04-25 13:49 | 55.59626 | 11.76204 | 16007 ft | 307 kts | 278° |
| 2026-04-25 13:49 | 55.59732 | 11.72417 | 16786 ft | 310 kts | 278° |
| 2026-04-25 13:50 | 55.59837 | 11.68593 | 17538 ft | 313 kts | 278° |
| 2026-04-25 13:50 | 55.59943 | 11.64731 | 18277 ft | 316 kts | 278° |
| 2026-04-25 13:50 | 55.60048 | 11.60827 | 18921 ft | 318 kts | 278° |
| 2026-04-25 13:50 | 55.60152 | 11.56896 | 19580 ft | 321 kts | 278° |
| 2026-04-25 13:51 | 55.60256 | 11.52936 | 20246 ft | 323 kts | 278° |
| 2026-04-25 13:51 | 55.60359 | 11.48987 | 20891 ft | 325 kts | 278° |
| 2026-04-25 13:51 | 55.60462 | 11.44979 | 21526 ft | 328 kts | 278° |
| 2026-04-25 13:51 | 55.60560 | 11.40937 | 22152 ft | 331 kts | 277° |
| 2026-04-25 13:52 | 55.60542 | 11.36834 | 22760 ft | 336 kts | 274° |
| 2026-04-25 13:52 | 55.60426 | 11.32691 | 23364 ft | 339 kts | 273° |
| 2026-04-25 13:52 | 55.60291 | 11.28509 | 23847 ft | 342 kts | 273° |
| 2026-04-25 13:52 | 55.60153 | 11.24287 | 24287 ft | 345 kts | 273° |
| 2026-04-25 13:53 | 55.60013 | 11.20023 | 24668 ft | 349 kts | 274° |
| 2026-04-25 13:53 | 55.59872 | 11.15706 | 25039 ft | 354 kts | 274° |
| 2026-04-25 13:53 | 55.59727 | 11.11330 | 25464 ft | 357 kts | 274° |
| 2026-04-25 13:53 | 55.59581 | 11.06987 | 25895 ft | 360 kts | 274° |
| 2026-04-25 13:54 | 55.59430 | 11.02546 | 26309 ft | 363 kts | 274° |
| 2026-04-25 13:54 | 55.59277 | 10.98070 | 26730 ft | 366 kts | 274° |
| 2026-04-25 13:54 | 55.59122 | 10.93571 | 27120 ft | 368 kts | 274° |
| 2026-04-25 13:54 | 55.58963 | 10.89033 | 27506 ft | 371 kts | 274° |
| 2026-04-25 13:55 | 55.58802 | 10.84450 | 27896 ft | 374 kts | 274° |
| 2026-04-25 13:55 | 55.58637 | 10.79846 | 28284 ft | 377 kts | 274° |
| 2026-04-25 13:55 | 55.58470 | 10.75205 | 28644 ft | 379 kts | 274° |
| 2026-04-25 13:55 | 55.58298 | 10.70535 | 29018 ft | 382 kts | 273° |
| 2026-04-25 13:56 | 55.57974 | 10.65830 | 29369 ft | 391 kts | 268° |
| 2026-04-25 13:56 | 55.57302 | 10.61107 | 29714 ft | 400 kts | 262° |
| 2026-04-25 13:56 | 55.56451 | 10.56394 | 30037 ft | 405 kts | 261° |
| 2026-04-25 13:56 | 55.55534 | 10.51679 | 30321 ft | 408 kts | 260° |
| 2026-04-25 13:57 | 55.54580 | 10.46934 | 30628 ft | 410 kts | 259° |
| 2026-04-25 13:57 | 55.53940 | 10.43773 | 30818 ft | 412 kts | 259° |
| 2026-04-25 13:57 | 55.52658 | 10.37431 | 31171 ft | 415 kts | 259° |
| 2026-04-25 13:57 | 55.51691 | 10.32616 | 31500 ft | 415 kts | 260° |
| 2026-04-25 13:58 | 55.50729 | 10.27819 | 31889 ft | 414 kts | 260° |
| 2026-04-25 13:58 | 55.49771 | 10.23036 | 32259 ft | 414 kts | 260° |
| 2026-04-25 13:58 | 55.48815 | 10.18249 | 32626 ft | 413 kts | 260° |
| 2026-04-25 13:58 | 55.47859 | 10.13473 | 32990 ft | 413 kts | 260° |
| 2026-04-25 13:59 | 55.46903 | 10.08702 | 33363 ft | 412 kts | 260° |
| 2026-04-25 13:59 | 55.45960 | 10.04003 | 33696 ft | 412 kts | 260° |
| 2026-04-25 13:59 | 55.44991 | 9.99181 | 33910 ft | 414 kts | 261° |
| 2026-04-25 13:59 | 55.44028 | 9.94393 | 34150 ft | 415 kts | 260° |
| 2026-04-25 14:00 | 55.43382 | 9.91200 | 34322 ft | 415 kts | 260° |
| 2026-04-25 14:00 | 55.42092 | 9.84843 | 34640 ft | 416 kts | 260° |
| 2026-04-25 14:00 | 55.41113 | 9.80038 | 34899 ft | 417 kts | 260° |
| 2026-04-25 14:00 | 55.40131 | 9.75223 | 35144 ft | 417 kts | 259° |
| 2026-04-25 14:01 | 55.39150 | 9.70421 | 35269 ft | 419 kts | 259° |
| 2026-04-25 14:01 | 55.38158 | 9.65576 | 35447 ft | 421 kts | 259° |
| 2026-04-25 14:01 | 55.37160 | 9.60712 | 35688 ft | 421 kts | 258° |
| 2026-04-25 14:01 | 55.36163 | 9.55873 | 35926 ft | 421 kts | 258° |
| 2026-04-25 14:02 | 55.35165 | 9.51041 | 36183 ft | 422 kts | 258° |
| 2026-04-25 14:02 | 55.34160 | 9.46182 | 36408 ft | 422 kts | 258° |
| 2026-04-25 14:02 | 55.33167 | 9.41393 | 36577 ft | 424 kts | 258° |
| 2026-04-25 14:03 | 55.31132 | 9.31594 | 36908 ft | 428 kts | 258° |
| 2026-04-25 14:03 | 55.30104 | 9.26681 | 37160 ft | 428 kts | 258° |
| 2026-04-25 14:03 | 55.29076 | 9.21779 | 37399 ft | 428 kts | 258° |
| 2026-04-25 14:03 | 55.28045 | 9.16870 | 37638 ft | 428 kts | 257° |
| 2026-04-25 14:04 | 55.27014 | 9.11974 | 37852 ft | 429 kts | 257° |
| 2026-04-25 14:04 | 55.25979 | 9.07072 | 38071 ft | 429 kts | 257° |
| 2026-04-25 14:04 | 55.24942 | 9.02166 | 38284 ft | 429 kts | 257° |
| 2026-04-25 14:04 | 55.23902 | 8.97259 | 38508 ft | 430 kts | 257° |
| 2026-04-25 14:05 | 55.22859 | 8.92348 | 38699 ft | 430 kts | 257° |
| 2026-04-25 14:05 | 55.21813 | 8.87435 | 38861 ft | 430 kts | 257° |
| 2026-04-25 14:05 | 55.20764 | 8.82519 | 38947 ft | 432 kts | 257° |
| 2026-04-25 14:06 | 55.18651 | 8.72645 | 39015 ft | 433 kts | 256° |
| 2026-04-25 14:06 | 55.16543 | 8.62873 | 39025 ft | 430 kts | 256° |
| 2026-04-25 14:07 | 55.14424 | 8.53085 | 39030 ft | 430 kts | 256° |
| 2026-04-25 14:07 | 55.12303 | 8.43319 | 39040 ft | 430 kts | 256° |
| 2026-04-25 14:08 | 55.10169 | 8.33545 | 39045 ft | 430 kts | 256° |
| 2026-04-25 14:08 | 55.08026 | 8.23778 | 39047 ft | 431 kts | 256° |
| 2026-04-25 14:09 | 55.05887 | 8.14075 | 39047 ft | 431 kts | 256° |
| 2026-04-25 14:09 | 55.03725 | 8.04311 | 39050 ft | 432 kts | 255° |
| 2026-04-25 14:10 | 55.01552 | 7.94549 | 39049 ft | 432 kts | 255° |
| 2026-04-25 14:10 | 54.99362 | 7.84816 | 39062 ft | 432 kts | 253° |
| 2026-04-25 14:11 | 54.96825 | 7.75283 | 39064 ft | 434 kts | 250° |
| 2026-04-25 14:11 | 54.94151 | 7.65880 | 39067 ft | 434 kts | 250° |
| 2026-04-25 14:12 | 54.91501 | 7.56424 | 39082 ft | 436 kts | 251° |
| 2026-04-25 14:12 | 54.88892 | 7.46982 | 39084 ft | 437 kts | 251° |
| 2026-04-25 14:13 | 54.86267 | 7.37469 | 39088 ft | 437 kts | 251° |
| 2026-04-25 14:13 | 54.83636 | 7.27972 | 39094 ft | 437 kts | 251° |
| 2026-04-25 14:14 | 54.80995 | 7.18484 | 39096 ft | 437 kts | 251° |
| 2026-04-25 14:14 | 54.78340 | 7.08989 | 39099 ft | 436 kts | 250° |
| 2026-04-25 14:15 | 54.75680 | 6.99520 | 39096 ft | 437 kts | 250° |
| 2026-04-25 14:15 | 54.73006 | 6.90031 | 39120 ft | 439 kts | 250° |
| 2026-04-25 14:16 | 54.70333 | 6.80593 | 39122 ft | 440 kts | 250° |
| 2026-04-25 14:16 | 54.67633 | 6.71102 | 39118 ft | 440 kts | 250° |
| 2026-04-25 14:17 | 54.64926 | 6.61625 | 39129 ft | 440 kts | 250° |
| 2026-04-25 14:17 | 54.62213 | 6.52159 | 39129 ft | 440 kts | 250° |
| 2026-04-25 14:18 | 54.59491 | 6.42700 | 39124 ft | 440 kts | 249° |
| 2026-04-25 14:18 | 54.56751 | 6.33214 | 39137 ft | 443 kts | 249° |
| 2026-04-25 14:19 | 54.53990 | 6.23694 | 39140 ft | 444 kts | 249° |
| 2026-04-25 14:19 | 54.51219 | 6.14187 | 39144 ft | 444 kts | 249° |
| 2026-04-25 14:20 | 54.48458 | 6.04749 | 39151 ft | 444 kts | 249° |
| 2026-04-25 14:20 | 54.45666 | 5.95244 | 39160 ft | 445 kts | 249° |
| 2026-04-25 14:21 | 54.42872 | 5.85766 | 39144 ft | 445 kts | 248° |
| 2026-04-25 14:21 | 54.40059 | 5.76261 | 39164 ft | 447 kts | 248° |
| 2026-04-25 14:22 | 54.37234 | 5.66758 | 39168 ft | 447 kts | 248° |
| 2026-04-25 14:22 | 54.34406 | 5.57280 | 39166 ft | 447 kts | 248° |
| 2026-04-25 14:23 | 54.31565 | 5.47802 | 39177 ft | 447 kts | 248° |
| 2026-04-25 14:23 | 54.28717 | 5.38332 | 39161 ft | 447 kts | 248° |
| 2026-04-25 14:23 | 54.27297 | 5.33629 | 38814 ft | 444 kts | 248° |
| 2026-04-25 14:24 | 54.25879 | 5.28941 | 38388 ft | 442 kts | 247° |
| 2026-04-25 14:24 | 54.24476 | 5.24307 | 38125 ft | 447 kts | 247° |
| 2026-04-25 14:24 | 54.23038 | 5.19561 | 37851 ft | 450 kts | 247° |
| 2026-04-25 14:24 | 54.21594 | 5.14805 | 37572 ft | 451 kts | 247° |
| 2026-04-25 14:25 | 54.20144 | 5.10045 | 37301 ft | 452 kts | 247° |
| 2026-04-25 14:25 | 54.18687 | 5.05276 | 37036 ft | 453 kts | 247° |
| 2026-04-25 14:25 | 54.17221 | 5.00486 | 36768 ft | 454 kts | 246° |
| 2026-04-25 14:26 | 54.14284 | 4.90917 | 36233 ft | 456 kts | 246° |
| 2026-04-25 14:26 | 54.12810 | 4.86128 | 35993 ft | 455 kts | 246° |
| 2026-04-25 14:26 | 54.11334 | 4.81346 | 35734 ft | 455 kts | 246° |
| 2026-04-25 14:26 | 54.09873 | 4.76618 | 35486 ft | 456 kts | 246° |
| 2026-04-25 14:27 | 54.08390 | 4.71828 | 35239 ft | 457 kts | 246° |
| 2026-04-25 14:27 | 54.06905 | 4.67042 | 34991 ft | 458 kts | 246° |
| 2026-04-25 14:27 | 54.05412 | 4.62236 | 34752 ft | 459 kts | 246° |
| 2026-04-25 14:27 | 54.03917 | 4.57437 | 34512 ft | 460 kts | 246° |
| 2026-04-25 14:28 | 54.02410 | 4.52605 | 34277 ft | 461 kts | 246° |
| 2026-04-25 14:28 | 54.00901 | 4.47778 | 34012 ft | 462 kts | 246° |
| 2026-04-25 14:28 | 53.99381 | 4.42930 | 33736 ft | 463 kts | 246° |
| 2026-04-25 14:28 | 53.97870 | 4.38117 | 33469 ft | 463 kts | 246° |
| 2026-04-25 14:29 | 53.96353 | 4.33293 | 33209 ft | 464 kts | 246° |
| 2026-04-25 14:29 | 53.94846 | 4.28515 | 32941 ft | 464 kts | 246° |
| 2026-04-25 14:29 | 53.93320 | 4.23681 | 32682 ft | 465 kts | 246° |
| 2026-04-25 14:29 | 53.91786 | 4.18837 | 32377 ft | 465 kts | 246° |
| 2026-04-25 14:30 | 53.90256 | 4.14008 | 32117 ft | 464 kts | 246° |
| 2026-04-25 14:30 | 53.87195 | 4.04389 | 31605 ft | 464 kts | 245° |
| 2026-04-25 14:30 | 53.85638 | 3.99598 | 31349 ft | 464 kts | 243° |
| 2026-04-25 14:31 | 53.83787 | 3.95072 | 31092 ft | 467 kts | 235° |
| 2026-04-25 14:31 | 53.81554 | 3.91065 | 30870 ft | 470 kts | 227° |
| 2026-04-25 14:31 | 53.79110 | 3.87396 | 30617 ft | 470 kts | 225° |
| 2026-04-25 14:31 | 53.76606 | 3.83852 | 30365 ft | 469 kts | 224° |
| 2026-04-25 14:32 | 53.74079 | 3.80382 | 30102 ft | 467 kts | 223° |
| 2026-04-25 14:32 | 53.71551 | 3.76946 | 29814 ft | 465 kts | 223° |
| 2026-04-25 14:32 | 53.69059 | 3.73563 | 29544 ft | 463 kts | 223° |
| 2026-04-25 14:32 | 53.66558 | 3.70157 | 29245 ft | 460 kts | 223° |
| 2026-04-25 14:33 | 53.64047 | 3.66726 | 28962 ft | 457 kts | 223° |
| 2026-04-25 14:33 | 53.61614 | 3.63396 | 28695 ft | 455 kts | 223° |
| 2026-04-25 14:33 | 53.59168 | 3.60043 | 28410 ft | 452 kts | 223° |
| 2026-04-25 14:33 | 53.56727 | 3.56701 | 28145 ft | 450 kts | 223° |
| 2026-04-25 14:34 | 53.54304 | 3.53385 | 27877 ft | 448 kts | 223° |
| 2026-04-25 14:34 | 53.51889 | 3.50086 | 27611 ft | 446 kts | 223° |
| 2026-04-25 14:34 | 53.49484 | 3.46806 | 27358 ft | 445 kts | 223° |
| 2026-04-25 14:34 | 53.47896 | 3.44643 | 27195 ft | 444 kts | 223° |
| 2026-04-25 14:35 | 53.45498 | 3.41383 | 26932 ft | 442 kts | 223° |
| 2026-04-25 14:35 | 53.43106 | 3.38136 | 26676 ft | 441 kts | 223° |
| 2026-04-25 14:35 | 53.39815 | 3.34130 | 26335 ft | 442 kts | 214° |
| 2026-04-25 14:35 | 53.37145 | 3.31579 | 26214 ft | 442 kts | 212° |
| 2026-04-25 14:36 | 53.35316 | 3.29934 | 26198 ft | 443 kts | 211° |
| 2026-04-25 14:36 | 53.32574 | 3.27559 | 26175 ft | 443 kts | 210° |
| 2026-04-25 14:36 | 53.29821 | 3.25230 | 26170 ft | 443 kts | 210° |
| 2026-04-25 14:36 | 53.27106 | 3.22954 | 26170 ft | 442 kts | 210° |
| 2026-04-25 14:37 | 53.24353 | 3.20646 | 26171 ft | 442 kts | 210° |
| 2026-04-25 14:37 | 53.21603 | 3.18330 | 26170 ft | 442 kts | 210° |
| 2026-04-25 14:37 | 53.18858 | 3.16015 | 26175 ft | 442 kts | 210° |
| 2026-04-25 14:37 | 53.16110 | 3.13700 | 26179 ft | 441 kts | 210° |
| 2026-04-25 14:38 | 53.13376 | 3.11396 | 26178 ft | 441 kts | 210° |
| 2026-04-25 14:38 | 53.10637 | 3.09089 | 26195 ft | 441 kts | 210° |
| 2026-04-25 14:38 | 53.07897 | 3.06783 | 26195 ft | 441 kts | 210° |
| 2026-04-25 14:38 | 53.05164 | 3.04486 | 26204 ft | 441 kts | 210° |
| 2026-04-25 14:39 | 53.02464 | 3.02221 | 26207 ft | 440 kts | 210° |
| 2026-04-25 14:39 | 52.99732 | 2.99933 | 26212 ft | 439 kts | 210° |
| 2026-04-25 14:39 | 52.97005 | 2.97651 | 26193 ft | 439 kts | 210° |
| 2026-04-25 14:39 | 52.94277 | 2.95372 | 26210 ft | 438 kts | 210° |
| 2026-04-25 14:40 | 52.91559 | 2.93098 | 26205 ft | 437 kts | 210° |
| 2026-04-25 14:40 | 52.88841 | 2.90832 | 26210 ft | 437 kts | 210° |
| 2026-04-25 14:40 | 52.86128 | 2.88576 | 26212 ft | 437 kts | 210° |
| 2026-04-25 14:40 | 52.83412 | 2.86321 | 26211 ft | 437 kts | 210° |
| 2026-04-25 14:41 | 52.80688 | 2.84063 | 26209 ft | 437 kts | 210° |
| 2026-04-25 14:41 | 52.77996 | 2.81834 | 26211 ft | 437 kts | 210° |
| 2026-04-25 14:41 | 52.75279 | 2.79585 | 26211 ft | 437 kts | 210° |
| 2026-04-25 14:41 | 52.72555 | 2.77330 | 26204 ft | 437 kts | 209° |
| 2026-04-25 14:42 | 52.69836 | 2.75089 | 26209 ft | 436 kts | 209° |
| 2026-04-25 14:42 | 52.68037 | 2.73609 | 26211 ft | 436 kts | 209° |
| 2026-04-25 14:42 | 52.64411 | 2.70628 | 26219 ft | 436 kts | 209° |
| 2026-04-25 14:42 | 52.61702 | 2.68403 | 26214 ft | 436 kts | 209° |
| 2026-04-25 14:43 | 52.58986 | 2.66175 | 26216 ft | 436 kts | 209° |
| 2026-04-25 14:43 | 52.56268 | 2.63949 | 26214 ft | 436 kts | 209° |
| 2026-04-25 14:43 | 52.53565 | 2.61737 | 26217 ft | 436 kts | 209° |
| 2026-04-25 14:43 | 52.50842 | 2.59513 | 26216 ft | 436 kts | 209° |
| 2026-04-25 14:44 | 52.48128 | 2.57299 | 26208 ft | 435 kts | 209° |
| 2026-04-25 14:44 | 52.45418 | 2.55085 | 26213 ft | 434 kts | 209° |
| 2026-04-25 14:44 | 52.42711 | 2.52884 | 26212 ft | 434 kts | 209° |
| 2026-04-25 14:44 | 52.40010 | 2.50693 | 26147 ft | 431 kts | 209° |
| 2026-04-25 14:45 | 52.38233 | 2.49253 | 25841 ft | 427 kts | 209° |
| 2026-04-25 14:45 | 52.34730 | 2.46416 | 25466 ft | 424 kts | 209° |
| 2026-04-25 14:45 | 52.32063 | 2.44255 | 25398 ft | 428 kts | 209° |
| 2026-04-25 14:45 | 52.29395 | 2.42099 | 25315 ft | 427 kts | 209° |
| 2026-04-25 14:46 | 52.26722 | 2.39943 | 25175 ft | 427 kts | 209° |
| 2026-04-25 14:46 | 52.24066 | 2.37803 | 25058 ft | 425 kts | 209° |
| 2026-04-25 14:46 | 52.21411 | 2.35667 | 24928 ft | 424 kts | 209° |
| 2026-04-25 14:46 | 52.18770 | 2.33544 | 24802 ft | 423 kts | 209° |
| 2026-04-25 14:47 | 52.16133 | 2.31428 | 24677 ft | 423 kts | 209° |
| 2026-04-25 14:47 | 52.14385 | 2.30026 | 24597 ft | 422 kts | 209° |
| 2026-04-25 14:47 | 52.10864 | 2.27207 | 24418 ft | 421 kts | 209° |
| 2026-04-25 14:47 | 52.08231 | 2.25095 | 24293 ft | 421 kts | 209° |
| 2026-04-25 14:48 | 52.05609 | 2.23002 | 24164 ft | 420 kts | 208° |
| 2026-04-25 14:48 | 52.03017 | 2.20938 | 24040 ft | 419 kts | 208° |
| 2026-04-25 14:48 | 52.00401 | 2.18857 | 23914 ft | 419 kts | 209° |
| 2026-04-25 14:48 | 51.97781 | 2.16774 | 23782 ft | 418 kts | 208° |
| 2026-04-25 14:49 | 51.95174 | 2.14704 | 23654 ft | 417 kts | 208° |
| 2026-04-25 14:49 | 51.92573 | 2.12640 | 23517 ft | 416 kts | 208° |
| 2026-04-25 14:49 | 51.89977 | 2.10585 | 23395 ft | 409 kts | 208° |
| 2026-04-25 14:49 | 51.87456 | 2.08594 | 23276 ft | 396 kts | 208° |
| 2026-04-25 14:50 | 51.85022 | 2.06673 | 23135 ft | 384 kts | 208° |
| 2026-04-25 14:50 | 51.82655 | 2.04807 | 22990 ft | 372 kts | 209° |
| 2026-04-25 14:50 | 51.80357 | 2.02995 | 22868 ft | 362 kts | 209° |
| 2026-04-25 14:50 | 51.78126 | 2.01239 | 22692 ft | 352 kts | 209° |
| 2026-04-25 14:51 | 51.75978 | 1.99550 | 22581 ft | 342 kts | 209° |
| 2026-04-25 14:51 | 51.73845 | 1.97872 | 22481 ft | 342 kts | 209° |
| 2026-04-25 14:51 | 51.71705 | 1.96188 | 22074 ft | 342 kts | 209° |
| 2026-04-25 14:51 | 51.69567 | 1.94509 | 21659 ft | 341 kts | 209° |
| 2026-04-25 14:52 | 51.67433 | 1.92835 | 21273 ft | 340 kts | 209° |
| 2026-04-25 14:52 | 51.65429 | 1.90899 | 20984 ft | 333 kts | 221° |
| 2026-04-25 14:52 | 51.63775 | 1.88320 | 20624 ft | 329 kts | 230° |
| 2026-04-25 14:52 | 51.62768 | 1.86506 | 20309 ft | 326 kts | 231° |
| 2026-04-25 14:53 | 51.60773 | 1.82831 | 19404 ft | 325 kts | 231° |
| 2026-04-25 14:53 | 51.59287 | 1.80097 | 18721 ft | 324 kts | 231° |
| 2026-04-25 14:53 | 51.57827 | 1.77423 | 18036 ft | 322 kts | 231° |
| 2026-04-25 14:53 | 51.56350 | 1.74728 | 17351 ft | 319 kts | 230° |
| 2026-04-25 14:54 | 51.54887 | 1.72065 | 16690 ft | 316 kts | 230° |
| 2026-04-25 14:54 | 51.53438 | 1.69432 | 16068 ft | 313 kts | 230° |
| 2026-04-25 14:54 | 51.52000 | 1.66823 | 15495 ft | 311 kts | 230° |
| 2026-04-25 14:54 | 51.50567 | 1.64226 | 15190 ft | 310 kts | 230° |
| 2026-04-25 14:55 | 51.49211 | 1.61569 | 14925 ft | 305 kts | 238° |
| 2026-04-25 14:55 | 51.48268 | 1.58543 | 14635 ft | 302 kts | 250° |
| 2026-04-25 14:55 | 51.47531 | 1.55403 | 14373 ft | 300 kts | 251° |
| 2026-04-25 14:55 | 51.46833 | 1.52315 | 14225 ft | 297 kts | 251° |
| 2026-04-25 14:56 | 51.46117 | 1.49157 | 14215 ft | 298 kts | 251° |
| 2026-04-25 14:56 | 51.45414 | 1.46076 | 14217 ft | 298 kts | 251° |
| 2026-04-25 14:56 | 51.44697 | 1.42953 | 14212 ft | 298 kts | 251° |
| 2026-04-25 14:56 | 51.44491 | 1.42059 | 14214 ft | 298 kts | 251° |
| 2026-04-25 14:57 | 51.43704 | 1.38984 | 14209 ft | 299 kts | 243° |
| 2026-04-25 14:57 | 51.42454 | 1.36349 | 13944 ft | 300 kts | 224° |
| 2026-04-25 14:57 | 51.40819 | 1.34251 | 13590 ft | 301 kts | 218° |
| 2026-04-25 14:57 | 51.39129 | 1.32277 | 13259 ft | 301 kts | 218° |
| 2026-04-25 14:58 | 51.37439 | 1.30312 | 12933 ft | 300 kts | 218° |
| 2026-04-25 14:58 | 51.35754 | 1.28344 | 12647 ft | 299 kts | 218° |
| 2026-04-25 14:58 | 51.34088 | 1.26388 | 12377 ft | 297 kts | 218° |
| 2026-04-25 14:58 | 51.32419 | 1.24424 | 12119 ft | 296 kts | 218° |
| 2026-04-25 14:59 | 51.30764 | 1.22473 | 11872 ft | 294 kts | 218° |
| 2026-04-25 14:59 | 51.29122 | 1.20537 | 11634 ft | 294 kts | 218° |
| 2026-04-25 14:59 | 51.27473 | 1.18595 | 11389 ft | 293 kts | 218° |
| 2026-04-25 14:59 | 51.25833 | 1.16668 | 11156 ft | 293 kts | 218° |
| 2026-04-25 15:00 | 51.24211 | 1.14762 | 10914 ft | 291 kts | 218° |
| 2026-04-25 15:00 | 51.22576 | 1.12841 | 10668 ft | 292 kts | 218° |
| 2026-04-25 15:00 | 51.20931 | 1.10909 | 10439 ft | 291 kts | 218° |
| 2026-04-25 15:00 | 51.19304 | 1.09000 | 10213 ft | 290 kts | 218° |
| 2026-04-25 15:01 | 51.17682 | 1.07100 | 9968 ft | 290 kts | 217° |
| 2026-04-25 15:01 | 51.16050 | 1.05191 | 9712 ft | 289 kts | 217° |
| 2026-04-25 15:01 | 51.14454 | 1.03326 | 9463 ft | 288 kts | 218° |
| 2026-04-25 15:01 | 51.12837 | 1.01437 | 9216 ft | 287 kts | 217° |
| 2026-04-25 15:02 | 51.11232 | 0.99569 | 8947 ft | 286 kts | 217° |
| 2026-04-25 15:02 | 51.09627 | 0.97695 | 8718 ft | 285 kts | 217° |
| 2026-04-25 15:02 | 51.08030 | 0.95831 | 8464 ft | 285 kts | 218° |
| 2026-04-25 15:02 | 51.06460 | 0.93915 | 8213 ft | 283 kts | 223° |
| 2026-04-25 15:03 | 51.05243 | 0.91496 | 7968 ft | 280 kts | 242° |
| 2026-04-25 15:03 | 51.04361 | 0.88731 | 7747 ft | 279 kts | 246° |
| 2026-04-25 15:03 | 51.03541 | 0.85935 | 7530 ft | 278 kts | 246° |
| 2026-04-25 15:03 | 51.02725 | 0.83154 | 7300 ft | 277 kts | 246° |
| 2026-04-25 15:04 | 51.01916 | 0.80414 | 7234 ft | 278 kts | 246° |
| 2026-04-25 15:04 | 51.01090 | 0.77637 | 7233 ft | 278 kts | 246° |
| 2026-04-25 15:04 | 51.00439 | 0.74766 | 7234 ft | 276 kts | 261° |
| 2026-04-25 15:04 | 51.00287 | 0.71737 | 7239 ft | 275 kts | 270° |
| 2026-04-25 15:05 | 51.00271 | 0.68698 | 7245 ft | 275 kts | 271° |
| 2026-04-25 15:05 | 51.00270 | 0.65705 | 7247 ft | 271 kts | 271° |
| 2026-04-25 15:05 | 51.00271 | 0.62691 | 7256 ft | 275 kts | 271° |
| 2026-04-25 15:06 | 51.00272 | 0.56616 | 7256 ft | 275 kts | 271° |
| 2026-04-25 15:06 | 51.00271 | 0.53572 | 7260 ft | 275 kts | 271° |
| 2026-04-25 15:06 | 51.00270 | 0.50537 | 7262 ft | 275 kts | 271° |
| 2026-04-25 15:06 | 51.00269 | 0.47502 | 7261 ft | 275 kts | 271° |
| 2026-04-25 15:07 | 51.00268 | 0.44460 | 7264 ft | 276 kts | 271° |
| 2026-04-25 15:07 | 51.00269 | 0.41418 | 7265 ft | 276 kts | 271° |
| 2026-04-25 15:07 | 51.00271 | 0.38389 | 7260 ft | 271 kts | 271° |
| 2026-04-25 15:07 | 51.00272 | 0.35467 | 7255 ft | 258 kts | 271° |
| 2026-04-25 15:08 | 51.00270 | 0.32694 | 7252 ft | 246 kts | 271° |
| 2026-04-25 15:08 | 51.00266 | 0.29996 | 7255 ft | 243 kts | 271° |
| 2026-04-25 15:08 | 51.00263 | 0.27311 | 7254 ft | 243 kts | 271° |
| 2026-04-25 15:08 | 51.00260 | 0.24629 | 7250 ft | 243 kts | 271° |
| 2026-04-25 15:09 | 51.00255 | 0.21947 | 7248 ft | 243 kts | 271° |
| 2026-04-25 15:09 | 51.00250 | 0.19268 | 7246 ft | 243 kts | 271° |
| 2026-04-25 15:09 | 51.00238 | 0.13908 | 7237 ft | 242 kts | 271° |
| 2026-04-25 15:10 | 51.00233 | 0.11231 | 7233 ft | 243 kts | 271° |
| 2026-04-25 15:10 | 51.00229 | 0.08549 | 7225 ft | 242 kts | 271° |
| 2026-04-25 15:10 | 51.00218 | 0.03222 | 7217 ft | 243 kts | 271° |
| 2026-04-25 15:11 | 51.00213 | 0.00547 | 7211 ft | 243 kts | 271° |
| 2026-04-25 15:11 | 51.00208 | -0.02135 | 7187 ft | 243 kts | 271° |
| 2026-04-25 15:11 | 51.00206 | -0.04799 | 7029 ft | 240 kts | 271° |
| 2026-04-25 15:12 | 51.00206 | -0.10127 | 6513 ft | 241 kts | 271° |
| 2026-04-25 15:12 | 51.00205 | -0.12787 | 6268 ft | 241 kts | 271° |
| 2026-04-25 15:12 | 51.00204 | -0.15444 | 6037 ft | 240 kts | 271° |
| 2026-04-25 15:12 | 51.00204 | -0.16296 | 5957 ft | 239 kts | 271° |
| 2026-04-25 15:13 | 51.00203 | -0.20712 | 5540 ft | 238 kts | 271° |
| 2026-04-25 15:13 | 51.00200 | -0.25913 | 5033 ft | 236 kts | 271° |
| 2026-04-25 15:13 | 51.00201 | -0.28517 | 4785 ft | 235 kts | 271° |
| 2026-04-25 15:14 | 51.00201 | -0.31112 | 4541 ft | 235 kts | 271° |
| 2026-04-25 15:14 | 51.00204 | -0.33698 | 4292 ft | 234 kts | 271° |
| 2026-04-25 15:14 | 51.00208 | -0.36282 | 4019 ft | 233 kts | 271° |
| 2026-04-25 15:14 | 51.00212 | -0.38855 | 3756 ft | 233 kts | 271° |
| 2026-04-25 15:15 | 51.00219 | -0.41429 | 3477 ft | 233 kts | 270° |
| 2026-04-25 15:15 | 51.00232 | -0.44007 | 3209 ft | 233 kts | 271° |
| 2026-04-25 15:15 | 51.00246 | -0.46559 | 3030 ft | 230 kts | 271° |
| 2026-04-25 15:15 | 51.00262 | -0.49099 | 3016 ft | 230 kts | 271° |
| 2026-04-25 15:16 | 51.00279 | -0.51641 | 3014 ft | 230 kts | 271° |
| 2026-04-25 15:16 | 51.00297 | -0.54183 | 3013 ft | 230 kts | 271° |
| 2026-04-25 15:16 | 51.01398 | -0.58744 | 3017 ft | 228 kts | 315° |
| 2026-04-25 15:17 | 51.03800 | -0.62017 | 3005 ft | 229 kts | 321° |
| 2026-04-25 15:17 | 51.05031 | -0.63624 | 2984 ft | 229 kts | 321° |
| 2026-04-25 15:17 | 51.06264 | -0.65235 | 2983 ft | 229 kts | 321° |
| 2026-04-25 15:18 | 51.07496 | -0.66843 | 2999 ft | 229 kts | 322° |
| 2026-04-25 15:18 | 51.10445 | -0.67892 | 2982 ft | 227 kts | 20° |
| 2026-04-25 15:18 | 51.11699 | -0.66455 | 2977 ft | 224 kts | 53° |
| 2026-04-25 15:19 | 51.12260 | -0.64156 | 2998 ft | 227 kts | 85° |
| 2026-04-25 15:19 | 51.12270 | -0.63302 | 3000 ft | 228 kts | 93° |
| 2026-04-25 15:19 | 51.11933 | -0.59131 | 3000 ft | 229 kts | 97° |
| 2026-04-25 15:19 | 51.11711 | -0.56623 | 2999 ft | 227 kts | 98° |
| 2026-04-25 15:20 | 51.11492 | -0.54148 | 2999 ft | 228 kts | 98° |
| 2026-04-25 15:20 | 51.11273 | -0.51686 | 2986 ft | 216 kts | 98° |
| 2026-04-25 15:20 | 51.11069 | -0.49414 | 2979 ft | 203 kts | 98° |
| 2026-04-25 15:20 | 51.10997 | -0.47239 | 2978 ft | 191 kts | 84° |
| 2026-04-25 15:21 | 51.11212 | -0.45246 | 3020 ft | 178 kts | 77° |
| 2026-04-25 15:21 | 51.11476 | -0.43339 | 3001 ft | 175 kts | 77° |
| 2026-04-25 15:21 | 51.11725 | -0.41492 | 2846 ft | 165 kts | 78° |
| 2026-04-25 15:21 | 51.11952 | -0.39778 | 2636 ft | 152 kts | 78° |
| 2026-04-25 15:22 | 51.12171 | -0.38185 | 2417 ft | 143 kts | 77° |
| 2026-04-25 15:22 | 51.12383 | -0.36649 | 2230 ft | 142 kts | 77° |
| 2026-04-25 15:22 | 51.12595 | -0.35108 | 2046 ft | 142 kts | 77° |
| 2026-04-25 15:22 | 51.12808 | -0.33568 | 1846 ft | 142 kts | 77° |
| 2026-04-25 15:23 | 51.13017 | -0.32050 | 1655 ft | 142 kts | 77° |
| 2026-04-25 15:23 | 51.13229 | -0.30516 | 1457 ft | 142 kts | 77° |
| 2026-04-25 15:23 | 51.13440 | -0.28985 | 1276 ft | 141 kts | 77° |
| 2026-04-25 15:23 | 51.13650 | -0.27463 | 1086 ft | 141 kts | 78° |
| 2026-04-25 15:24 | 51.13859 | -0.25942 | 902 ft | 140 kts | 77° |
| 2026-04-25 15:24 | 51.13997 | -0.24937 | 784 ft | 140 kts | 77° |
| 2026-04-25 15:24 | 51.14206 | -0.23420 | 577 ft | 140 kts | 77° |
| 2026-04-25 15:24 | 51.14345 | -0.22400 | 425 ft | 139 kts | 77° |
| 2026-04-25 15:25 | 51.14551 | -0.20931 | 273 ft | 138 kts | 77° |
| 2026-04-25 15:25 | 51.14812 | -0.19070 | 215 ft | 97 kts | 78° |
| 2026-04-25 15:25 | 51.14892 | -0.18482 | 216 ft | 11 kts | 77° |
| 2026-04-25 15:25 | 51.14895 | -0.18457 | 212 ft | 4 kts | 77° |
| 2026-04-25 15:26 | 51.14909 | -0.18358 | 212 ft | 15 kts | 77° |
| 2026-04-25 15:26 | 51.14939 | -0.18148 | 215 ft | 24 kts | 75° |
| 2026-04-25 15:26 | 51.15016 | -0.17887 | 221 ft | 24 kts | 55° |
| 2026-04-25 15:26 | 51.15104 | -0.17767 | 219 ft | 0 kts | 12° |
| 2026-04-25 15:27 | 51.15154 | -0.17767 | 216 ft | 8 kts | 359° |
| 2026-04-25 15:28 | 51.15205 | -0.17777 | 215 ft | 0 kts | 352° |
| 2026-04-25 15:29 | 51.15208 | -0.17778 | 215 ft | 3 kts | 352° |
| 2026-04-25 15:29 | 51.15254 | -0.17754 | 212 ft | 10 kts | 44° |
| 2026-04-25 15:30 | 51.15276 | -0.17634 | 216 ft | 13 kts | 77° |
| 2026-04-25 15:30 | 51.15293 | -0.17500 | 214 ft | 10 kts | 80° |
| 2026-04-25 15:30 | 51.15318 | -0.17385 | 219 ft | 10 kts | 40° |
| 2026-04-25 15:30 | 51.15376 | -0.17381 | 216 ft | 10 kts | 355° |
| 2026-04-25 15:31 | 51.15444 | -0.17364 | 214 ft | 8 kts | 46° |
| 2026-04-25 15:31 | 51.15443 | -0.17325 | 213 ft | 3 kts | 109° |
| 2026-04-25 15:31 | 51.15432 | -0.17276 | 213 ft | 8 kts | 107° |
| 2026-04-25 15:31 | 51.15452 | -0.17182 | 214 ft | 6 kts | 52° |
| 2026-04-25 15:32 | 51.15454 | -0.17178 | 213 ft | 1 kts | 54° |
| 2026-04-25 15:32 | 51.15461 | -0.17165 | 214 ft | 2 kts | 45° |
| 2026-04-25 15:32 | 51.15463 | -0.17162 | 215 ft | 0 kts | 43° |